sensor_id;sensor_type;location;lat;lon;timestamp;P1;durP1;ratioP1;P2;durP2;ratioP2
35969;SDS011;22448;51.298;6.430;2023-04-03T00:00:39;18.30;;;9.50;;
35969;SDS011;22448;51.298;6.430;2023-04-03T00:03:06;14.77;;;8.80;;
35969;SDS011;22448;51.298;6.430;2023-04-03T00:05:34;13.80;;;8.80;;
35969;SDS011;22448;51.298;6.430;2023-04-03T00:08:01;12.48;;;8.00;;
35969;SDS011;22448;51.298;6.430;2023-04-03T00:10:28;14.52;;;8.52;;
35969;SDS011;22448;51.298;6.430;2023-04-03T00:12:55;15.40;;;8.30;;
35969;SDS011;22448;51.298;6.430;2023-04-03T00:15:22;22.48;;;8.93;;
35969;SDS011;22448;51.298;6.430;2023-04-03T00:17:49;15.95;;;8.90;;
35969;SDS011;22448;51.298;6.430;2023-04-03T00:20:16;15.35;;;8.23;;
35969;SDS011;22448;51.298;6.430;2023-04-03T00:22:44;13.82;;;9.25;;
35969;SDS011;22448;51.298;6.430;2023-04-03T00:25:11;12.95;;;9.15;;
35969;SDS011;22448;51.298;6.430;2023-04-03T00:27:38;15.45;;;9.70;;
35969;SDS011;22448;51.298;6.430;2023-04-03T00:30:06;16.05;;;8.98;;
35969;SDS011;22448;51.298;6.430;2023-04-03T00:32:36;13.10;;;8.85;;
35969;SDS011;22448;51.298;6.430;2023-04-03T00:35:03;15.02;;;9.20;;
35969;SDS011;22448;51.298;6.430;2023-04-03T00:37:30;19.02;;;9.75;;
35969;SDS011;22448;51.298;6.430;2023-04-03T00:39:57;15.65;;;10.02;;
35969;SDS011;22448;51.298;6.430;2023-04-03T00:42:24;16.52;;;10.18;;
35969;SDS011;22448;51.298;6.430;2023-04-03T00:47:27;17.02;;;9.65;;
35969;SDS011;22448;51.298;6.430;2023-04-03T00:49:54;15.32;;;10.23;;
35969;SDS011;22448;51.298;6.430;2023-04-03T00:52:22;18.27;;;9.98;;
35969;SDS011;22448;51.298;6.430;2023-04-03T00:54:54;21.67;;;10.48;;
35969;SDS011;22448;51.298;6.430;2023-04-03T00:57:27;19.25;;;9.98;;
35969;SDS011;22448;51.298;6.430;2023-04-03T00:59:58;16.33;;;9.85;;
35969;SDS011;22448;51.298;6.430;2023-04-03T01:02:29;18.90;;;10.32;;
35969;SDS011;22448;51.298;6.430;2023-04-03T01:04:57;27.17;;;10.63;;
35969;SDS011;22448;51.298;6.430;2023-04-03T01:07:26;15.93;;;9.30;;
35969;SDS011;22448;51.298;6.430;2023-04-03T01:09:56;19.38;;;10.00;;
35969;SDS011;22448;51.298;6.430;2023-04-03T01:14:58;17.73;;;9.93;;
35969;SDS011;22448;51.298;6.430;2023-04-03T01:17:33;16.90;;;9.10;;
35969;SDS011;22448;51.298;6.430;2023-04-03T01:23:07;20.90;;;11.30;;
35969;SDS011;22448;51.298;6.430;2023-04-03T01:28:10;21.23;;;12.80;;
35969;SDS011;22448;51.298;6.430;2023-04-03T01:33:32;21.83;;;11.10;;
35969;SDS011;22448;51.298;6.430;2023-04-03T01:35:59;17.00;;;10.35;;
35969;SDS011;22448;51.298;6.430;2023-04-03T01:38:27;19.00;;;10.65;;
35969;SDS011;22448;51.298;6.430;2023-04-03T01:40:54;20.05;;;10.73;;
35969;SDS011;22448;51.298;6.430;2023-04-03T01:43:21;19.92;;;10.10;;
35969;SDS011;22448;51.298;6.430;2023-04-03T01:45:48;22.45;;;10.73;;
35969;SDS011;22448;51.298;6.430;2023-04-03T01:48:21;26.50;;;11.75;;
35969;SDS011;22448;51.298;6.430;2023-04-03T01:50:48;19.60;;;11.43;;
35969;SDS011;22448;51.298;6.430;2023-04-03T01:53:15;18.08;;;12.27;;
35969;SDS011;22448;51.298;6.430;2023-04-03T01:55:42;20.20;;;11.85;;
35969;SDS011;22448;51.298;6.430;2023-04-03T01:58:09;21.23;;;11.48;;
35969;SDS011;22448;51.298;6.430;2023-04-03T02:00:36;17.52;;;11.70;;
35969;SDS011;22448;51.298;6.430;2023-04-03T02:03:04;19.38;;;12.63;;
35969;SDS011;22448;51.298;6.430;2023-04-03T02:05:31;23.35;;;12.93;;
35969;SDS011;22448;51.298;6.430;2023-04-03T02:07:58;20.13;;;11.80;;
35969;SDS011;22448;51.298;6.430;2023-04-03T02:10:25;24.02;;;12.50;;
35969;SDS011;22448;51.298;6.430;2023-04-03T02:12:52;24.10;;;12.90;;
35969;SDS011;22448;51.298;6.430;2023-04-03T02:15:19;21.48;;;11.93;;
35969;SDS011;22448;51.298;6.430;2023-04-03T02:17:46;21.05;;;11.43;;
35969;SDS011;22448;51.298;6.430;2023-04-03T02:20:13;19.52;;;10.80;;
35969;SDS011;22448;51.298;6.430;2023-04-03T02:22:40;18.85;;;10.18;;
35969;SDS011;22448;51.298;6.430;2023-04-03T02:25:08;21.50;;;9.57;;
35969;SDS011;22448;51.298;6.430;2023-04-03T02:27:36;21.13;;;10.55;;
35969;SDS011;22448;51.298;6.430;2023-04-03T02:30:03;22.33;;;10.88;;
35969;SDS011;22448;51.298;6.430;2023-04-03T02:32:31;19.77;;;10.60;;
35969;SDS011;22448;51.298;6.430;2023-04-03T02:34:59;22.15;;;10.88;;
35969;SDS011;22448;51.298;6.430;2023-04-03T02:37:26;17.25;;;10.60;;
35969;SDS011;22448;51.298;6.430;2023-04-03T02:39:54;20.08;;;10.80;;
35969;SDS011;22448;51.298;6.430;2023-04-03T02:42:21;18.13;;;10.55;;
35969;SDS011;22448;51.298;6.430;2023-04-03T02:44:50;23.30;;;10.23;;
35969;SDS011;22448;51.298;6.430;2023-04-03T02:47:17;16.50;;;10.02;;
35969;SDS011;22448;51.298;6.430;2023-04-03T02:49:44;19.10;;;9.82;;
35969;SDS011;22448;51.298;6.430;2023-04-03T02:52:12;18.98;;;9.23;;
35969;SDS011;22448;51.298;6.430;2023-04-03T02:54:40;21.48;;;9.95;;
35969;SDS011;22448;51.298;6.430;2023-04-03T02:57:09;17.88;;;10.02;;
35969;SDS011;22448;51.298;6.430;2023-04-03T02:59:36;22.88;;;10.13;;
35969;SDS011;22448;51.298;6.430;2023-04-03T03:02:08;23.55;;;9.90;;
35969;SDS011;22448;51.298;6.430;2023-04-03T03:04:36;18.17;;;9.65;;
35969;SDS011;22448;51.298;6.430;2023-04-03T03:07:03;23.60;;;9.95;;
35969;SDS011;22448;51.298;6.430;2023-04-03T03:09:31;22.10;;;9.50;;
35969;SDS011;22448;51.298;6.430;2023-04-03T03:11:58;18.52;;;9.48;;
35969;SDS011;22448;51.298;6.430;2023-04-03T03:14:25;19.20;;;8.90;;
35969;SDS011;22448;51.298;6.430;2023-04-03T03:16:52;21.30;;;8.90;;
35969;SDS011;22448;51.298;6.430;2023-04-03T03:19:19;20.13;;;9.13;;
35969;SDS011;22448;51.298;6.430;2023-04-03T03:21:46;25.42;;;9.13;;
35969;SDS011;22448;51.298;6.430;2023-04-03T03:24:13;17.27;;;8.55;;
35969;SDS011;22448;51.298;6.430;2023-04-03T03:26:42;19.25;;;7.90;;
35969;SDS011;22448;51.298;6.430;2023-04-03T03:29:09;29.98;;;9.35;;
35969;SDS011;22448;51.298;6.430;2023-04-03T03:31:36;20.08;;;8.05;;
35969;SDS011;22448;51.298;6.430;2023-04-03T03:34:03;17.70;;;8.52;;
35969;SDS011;22448;51.298;6.430;2023-04-03T03:36:30;18.90;;;8.55;;
35969;SDS011;22448;51.298;6.430;2023-04-03T03:38:58;21.33;;;9.32;;
35969;SDS011;22448;51.298;6.430;2023-04-03T03:41:25;21.73;;;10.15;;
35969;SDS011;22448;51.298;6.430;2023-04-03T03:43:52;18.50;;;8.70;;
35969;SDS011;22448;51.298;6.430;2023-04-03T03:46:19;20.85;;;8.85;;
35969;SDS011;22448;51.298;6.430;2023-04-03T03:48:46;27.45;;;9.10;;
35969;SDS011;22448;51.298;6.430;2023-04-03T03:51:14;17.70;;;8.98;;
35969;SDS011;22448;51.298;6.430;2023-04-03T03:53:41;17.80;;;7.97;;
35969;SDS011;22448;51.298;6.430;2023-04-03T03:56:12;16.45;;;8.02;;
35969;SDS011;22448;51.298;6.430;2023-04-03T03:58:40;24.60;;;7.68;;
35969;SDS011;22448;51.298;6.430;2023-04-03T04:01:07;14.50;;;7.30;;
35969;SDS011;22448;51.298;6.430;2023-04-03T04:06:11;17.90;;;7.45;;
35969;SDS011;22448;51.298;6.430;2023-04-03T04:08:38;20.00;;;9.90;;
35969;SDS011;22448;51.298;6.430;2023-04-03T04:11:08;16.15;;;6.40;;
35969;SDS011;22448;51.298;6.430;2023-04-03T04:13:37;16.23;;;6.55;;
35969;SDS011;22448;51.298;6.430;2023-04-03T04:16:04;14.70;;;5.95;;
35969;SDS011;22448;51.298;6.430;2023-04-03T04:18:33;17.73;;;6.88;;
35969;SDS011;22448;51.298;6.430;2023-04-03T04:21:00;16.98;;;7.22;;
35969;SDS011;22448;51.298;6.430;2023-04-03T04:23:28;22.58;;;7.28;;
35969;SDS011;22448;51.298;6.430;2023-04-03T04:25:56;20.55;;;6.72;;
35969;SDS011;22448;51.298;6.430;2023-04-03T04:28:25;19.45;;;6.43;;
35969;SDS011;22448;51.298;6.430;2023-04-03T04:30:54;19.20;;;6.75;;
35969;SDS011;22448;51.298;6.430;2023-04-03T04:33:24;17.73;;;6.00;;
35969;SDS011;22448;51.298;6.430;2023-04-03T04:35:52;22.85;;;6.82;;
35969;SDS011;22448;51.298;6.430;2023-04-03T04:38:20;27.95;;;9.45;;
35969;SDS011;22448;51.298;6.430;2023-04-03T04:40:50;25.98;;;11.43;;
35969;SDS011;22448;51.298;6.430;2023-04-03T04:43:17;26.70;;;9.75;;
35969;SDS011;22448;51.298;6.430;2023-04-03T04:45:47;19.33;;;8.50;;
35969;SDS011;22448;51.298;6.430;2023-04-03T04:48:17;17.58;;;6.97;;
35969;SDS011;22448;51.298;6.430;2023-04-03T04:50:45;15.20;;;6.75;;
35969;SDS011;22448;51.298;6.430;2023-04-03T04:53:12;13.57;;;6.45;;
35969;SDS011;22448;51.298;6.430;2023-04-03T04:55:40;21.40;;;6.30;;
35969;SDS011;22448;51.298;6.430;2023-04-03T04:58:08;19.15;;;5.95;;
35969;SDS011;22448;51.298;6.430;2023-04-03T05:00:35;13.85;;;5.35;;
35969;SDS011;22448;51.298;6.430;2023-04-03T05:03:02;15.73;;;5.70;;
35969;SDS011;22448;51.298;6.430;2023-04-03T05:05:30;16.63;;;5.75;;
35969;SDS011;22448;51.298;6.430;2023-04-03T05:07:57;17.02;;;5.85;;
35969;SDS011;22448;51.298;6.430;2023-04-03T05:10:24;18.75;;;6.75;;
35969;SDS011;22448;51.298;6.430;2023-04-03T05:12:52;13.35;;;5.40;;
35969;SDS011;22448;51.298;6.430;2023-04-03T05:15:19;17.20;;;5.05;;
35969;SDS011;22448;51.298;6.430;2023-04-03T05:17:46;9.43;;;5.30;;
35969;SDS011;22448;51.298;6.430;2023-04-03T05:20:14;17.63;;;5.35;;
35969;SDS011;22448;51.298;6.430;2023-04-03T05:22:43;16.00;;;4.80;;
35969;SDS011;22448;51.298;6.430;2023-04-03T05:25:11;13.55;;;5.18;;
35969;SDS011;22448;51.298;6.430;2023-04-03T05:27:41;18.15;;;5.13;;
35969;SDS011;22448;51.298;6.430;2023-04-03T05:30:09;14.77;;;5.18;;
35969;SDS011;22448;51.298;6.430;2023-04-03T05:32:39;10.50;;;4.10;;
35969;SDS011;22448;51.298;6.430;2023-04-03T05:35:15;15.63;;;5.05;;
35969;SDS011;22448;51.298;6.430;2023-04-03T05:37:45;16.45;;;4.35;;
35969;SDS011;22448;51.298;6.430;2023-04-03T05:40:14;11.02;;;4.63;;
35969;SDS011;22448;51.298;6.430;2023-04-03T05:42:46;17.02;;;4.72;;
35969;SDS011;22448;51.298;6.430;2023-04-03T05:45:14;19.50;;;5.38;;
35969;SDS011;22448;51.298;6.430;2023-04-03T05:47:41;19.63;;;4.93;;
35969;SDS011;22448;51.298;6.430;2023-04-03T05:50:09;11.35;;;4.68;;
35969;SDS011;22448;51.298;6.430;2023-04-03T05:52:37;10.63;;;4.63;;
35969;SDS011;22448;51.298;6.430;2023-04-03T05:55:06;17.10;;;5.05;;
35969;SDS011;22448;51.298;6.430;2023-04-03T05:57:35;15.95;;;4.22;;
35969;SDS011;22448;51.298;6.430;2023-04-03T06:00:08;10.50;;;4.32;;
35969;SDS011;22448;51.298;6.430;2023-04-03T06:05:17;11.93;;;3.85;;
35969;SDS011;22448;51.298;6.430;2023-04-03T06:07:45;9.10;;;3.45;;
35969;SDS011;22448;51.298;6.430;2023-04-03T06:10:12;15.00;;;4.03;;
35969;SDS011;22448;51.298;6.430;2023-04-03T06:12:39;9.55;;;3.88;;
35969;SDS011;22448;51.298;6.430;2023-04-03T06:15:06;15.60;;;5.57;;
35969;SDS011;22448;51.298;6.430;2023-04-03T06:17:36;19.35;;;5.03;;
35969;SDS011;22448;51.298;6.430;2023-04-03T06:20:04;17.58;;;6.00;;
35969;SDS011;22448;51.298;6.430;2023-04-03T06:22:32;15.75;;;5.25;;
35969;SDS011;22448;51.298;6.430;2023-04-03T06:25:00;11.50;;;4.55;;
35969;SDS011;22448;51.298;6.430;2023-04-03T06:27:27;15.85;;;4.53;;
35969;SDS011;22448;51.298;6.430;2023-04-03T06:29:54;11.23;;;4.80;;
35969;SDS011;22448;51.298;6.430;2023-04-03T06:32:21;16.25;;;4.90;;
35969;SDS011;22448;51.298;6.430;2023-04-03T06:34:48;11.68;;;4.25;;
35969;SDS011;22448;51.298;6.430;2023-04-03T06:37:16;15.20;;;5.00;;
35969;SDS011;22448;51.298;6.430;2023-04-03T06:39:45;11.65;;;4.45;;
35969;SDS011;22448;51.298;6.430;2023-04-03T06:42:12;15.10;;;4.35;;
35969;SDS011;22448;51.298;6.430;2023-04-03T06:44:47;13.23;;;4.60;;
35969;SDS011;22448;51.298;6.430;2023-04-03T06:47:14;16.25;;;4.63;;
35969;SDS011;22448;51.298;6.430;2023-04-03T06:49:43;19.92;;;4.82;;
35969;SDS011;22448;51.298;6.430;2023-04-03T06:52:10;13.50;;;4.35;;
35969;SDS011;22448;51.298;6.430;2023-04-03T06:54:41;11.32;;;4.03;;
35969;SDS011;22448;51.298;6.430;2023-04-03T06:57:08;17.73;;;4.18;;
35969;SDS011;22448;51.298;6.430;2023-04-03T06:59:35;11.32;;;3.60;;
35969;SDS011;22448;51.298;6.430;2023-04-03T07:02:02;14.75;;;4.25;;
35969;SDS011;22448;51.298;6.430;2023-04-03T07:04:30;15.75;;;4.25;;
35969;SDS011;22448;51.298;6.430;2023-04-03T07:06:57;17.38;;;4.28;;
35969;SDS011;22448;51.298;6.430;2023-04-03T07:09:24;14.93;;;5.35;;
35969;SDS011;22448;51.298;6.430;2023-04-03T07:11:52;20.27;;;4.78;;
35969;SDS011;22448;51.298;6.430;2023-04-03T07:14:19;13.68;;;4.53;;
35969;SDS011;22448;51.298;6.430;2023-04-03T07:16:47;16.98;;;5.35;;
35969;SDS011;22448;51.298;6.430;2023-04-03T07:19:14;23.45;;;6.93;;
35969;SDS011;22448;51.298;6.430;2023-04-03T07:21:42;22.25;;;6.05;;
35969;SDS011;22448;51.298;6.430;2023-04-03T07:24:09;14.57;;;5.75;;
35969;SDS011;22448;51.298;6.430;2023-04-03T07:26:42;16.33;;;5.75;;
35969;SDS011;22448;51.298;6.430;2023-04-03T07:29:09;17.60;;;5.53;;
35969;SDS011;22448;51.298;6.430;2023-04-03T07:31:39;13.75;;;5.57;;
35969;SDS011;22448;51.298;6.430;2023-04-03T07:34:08;18.52;;;5.93;;
35969;SDS011;22448;51.298;6.430;2023-04-03T07:36:34;17.23;;;6.20;;
35969;SDS011;22448;51.298;6.430;2023-04-03T07:39:02;23.55;;;7.70;;
35969;SDS011;22448;51.298;6.430;2023-04-03T07:41:30;20.13;;;7.15;;
35969;SDS011;22448;51.298;6.430;2023-04-03T07:43:57;22.75;;;5.95;;
35969;SDS011;22448;51.298;6.430;2023-04-03T07:46:24;14.05;;;6.20;;
35969;SDS011;22448;51.298;6.430;2023-04-03T07:48:52;16.95;;;6.72;;
35969;SDS011;22448;51.298;6.430;2023-04-03T07:51:20;13.80;;;5.80;;
35969;SDS011;22448;51.298;6.430;2023-04-03T07:53:47;24.50;;;5.20;;
35969;SDS011;22448;51.298;6.430;2023-04-03T07:56:16;12.98;;;5.18;;
35969;SDS011;22448;51.298;6.430;2023-04-03T07:58:43;15.68;;;6.22;;
35969;SDS011;22448;51.298;6.430;2023-04-03T08:01:10;14.07;;;4.85;;
35969;SDS011;22448;51.298;6.430;2023-04-03T08:03:38;15.85;;;4.00;;
35969;SDS011;22448;51.298;6.430;2023-04-03T08:06:06;11.98;;;4.28;;
35969;SDS011;22448;51.298;6.430;2023-04-03T08:08:37;10.32;;;4.05;;
35969;SDS011;22448;51.298;6.430;2023-04-03T08:11:04;14.77;;;5.78;;
35969;SDS011;22448;51.298;6.430;2023-04-03T08:13:32;12.02;;;4.43;;
35969;SDS011;22448;51.298;6.430;2023-04-03T08:16:06;15.70;;;5.03;;
35969;SDS011;22448;51.298;6.430;2023-04-03T08:18:38;15.80;;;5.30;;
35969;SDS011;22448;51.298;6.430;2023-04-03T08:21:06;13.88;;;4.85;;
35969;SDS011;22448;51.298;6.430;2023-04-03T08:23:33;15.25;;;4.95;;
35969;SDS011;22448;51.298;6.430;2023-04-03T08:26:07;16.15;;;5.13;;
35969;SDS011;22448;51.298;6.430;2023-04-03T08:28:35;11.63;;;3.53;;
35969;SDS011;22448;51.298;6.430;2023-04-03T08:31:06;9.70;;;3.33;;
35969;SDS011;22448;51.298;6.430;2023-04-03T08:33:38;15.90;;;4.05;;
35969;SDS011;22448;51.298;6.430;2023-04-03T08:36:06;14.50;;;3.78;;
35969;SDS011;22448;51.298;6.430;2023-04-03T08:38:42;9.18;;;3.55;;
35969;SDS011;22448;51.298;6.430;2023-04-03T08:44:04;11.00;;;3.35;;
35969;SDS011;22448;51.298;6.430;2023-04-03T08:46:38;11.35;;;3.45;;
35969;SDS011;22448;51.298;6.430;2023-04-03T08:49:17;9.18;;;2.70;;
35969;SDS011;22448;51.298;6.430;2023-04-03T08:51:56;9.45;;;2.78;;
35969;SDS011;22448;51.298;6.430;2023-04-03T08:54:31;7.50;;;2.45;;
35969;SDS011;22448;51.298;6.430;2023-04-03T08:57:02;10.65;;;2.22;;
35969;SDS011;22448;51.298;6.430;2023-04-03T08:59:33;9.43;;;2.72;;
35969;SDS011;22448;51.298;6.430;2023-04-03T09:02:04;8.18;;;2.45;;
35969;SDS011;22448;51.298;6.430;2023-04-03T09:05:11;7.47;;;2.40;;
35969;SDS011;22448;51.298;6.430;2023-04-03T09:10:44;11.55;;;3.22;;
35969;SDS011;22448;51.298;6.430;2023-04-03T09:15:45;8.95;;;2.53;;
35969;SDS011;22448;51.298;6.430;2023-04-03T09:20:48;6.55;;;2.95;;
35969;SDS011;22448;51.298;6.430;2023-04-03T09:26:36;10.43;;;2.65;;
35969;SDS011;22448;51.298;6.430;2023-04-03T09:29:10;6.13;;;2.50;;
35969;SDS011;22448;51.298;6.430;2023-04-03T09:31:49;11.35;;;2.17;;
35969;SDS011;22448;51.298;6.430;2023-04-03T09:34:26;4.22;;;1.45;;
35969;SDS011;22448;51.298;6.430;2023-04-03T09:37:03;5.82;;;1.73;;
35969;SDS011;22448;51.298;6.430;2023-04-03T09:39:46;8.95;;;2.05;;
35969;SDS011;22448;51.298;6.430;2023-04-03T09:42:20;6.70;;;1.88;;
35969;SDS011;22448;51.298;6.430;2023-04-03T09:44:54;4.57;;;2.00;;
35969;SDS011;22448;51.298;6.430;2023-04-03T09:47:26;6.15;;;1.77;;
35969;SDS011;22448;51.298;6.430;2023-04-03T09:52:44;14.10;;;2.03;;
35969;SDS011;22448;51.298;6.430;2023-04-03T09:55:22;8.45;;;1.77;;
35969;SDS011;22448;51.298;6.430;2023-04-03T09:58:01;4.10;;;1.45;;
35969;SDS011;22448;51.298;6.430;2023-04-03T10:00:31;6.50;;;1.70;;
35969;SDS011;22448;51.298;6.430;2023-04-03T10:03:05;4.30;;;1.75;;
35969;SDS011;22448;51.298;6.430;2023-04-03T10:05:48;6.50;;;1.25;;
35969;SDS011;22448;51.298;6.430;2023-04-03T10:10:48;2.70;;;1.08;;
35969;SDS011;22448;51.298;6.430;2023-04-03T10:13:55;4.93;;;1.42;;
35969;SDS011;22448;51.298;6.430;2023-04-03T10:16:35;6.13;;;1.40;;
35969;SDS011;22448;51.298;6.430;2023-04-03T10:27:33;4.22;;;1.25;;
35969;SDS011;22448;51.298;6.430;2023-04-03T10:33:30;4.07;;;1.30;;
35969;SDS011;22448;51.298;6.430;2023-04-03T10:36:07;4.95;;;1.40;;
35969;SDS011;22448;51.298;6.430;2023-04-03T10:41:23;6.65;;;1.33;;
35969;SDS011;22448;51.298;6.430;2023-04-03T10:46:53;9.93;;;1.65;;
35969;SDS011;22448;51.298;6.430;2023-04-03T10:49:52;5.68;;;1.50;;
35969;SDS011;22448;51.298;6.430;2023-04-03T10:55:24;4.72;;;1.60;;
35969;SDS011;22448;51.298;6.430;2023-04-03T10:57:53;2.35;;;1.10;;
35969;SDS011;22448;51.298;6.430;2023-04-03T11:00:32;4.07;;;1.42;;
35969;SDS011;22448;51.298;6.430;2023-04-03T11:03:08;4.85;;;1.60;;
35969;SDS011;22448;51.298;6.430;2023-04-03T11:05:52;10.52;;;1.52;;
35969;SDS011;22448;51.298;6.430;2023-04-03T11:11:06;6.57;;;1.95;;
35969;SDS011;22448;51.298;6.430;2023-04-03T11:13:49;5.10;;;1.70;;
35969;SDS011;22448;51.298;6.430;2023-04-03T11:16:30;7.30;;;1.88;;
35969;SDS011;22448;51.298;6.430;2023-04-03T11:19:22;4.82;;;2.20;;
35969;SDS011;22448;51.298;6.430;2023-04-03T11:22:06;5.57;;;2.42;;
35969;SDS011;22448;51.298;6.430;2023-04-03T11:24:39;9.55;;;3.30;;
35969;SDS011;22448;51.298;6.430;2023-04-03T11:27:15;6.10;;;2.10;;
35969;SDS011;22448;51.298;6.430;2023-04-03T11:29:45;8.57;;;2.30;;
35969;SDS011;22448;51.298;6.430;2023-04-03T11:35:15;2.25;;;1.48;;
35969;SDS011;22448;51.298;6.430;2023-04-03T11:37:52;5.93;;;1.63;;
35969;SDS011;22448;51.298;6.430;2023-04-03T11:40:30;6.50;;;1.80;;
35969;SDS011;22448;51.298;6.430;2023-04-03T11:45:36;7.15;;;2.42;;
35969;SDS011;22448;51.298;6.430;2023-04-03T11:50:55;7.53;;;1.70;;
35969;SDS011;22448;51.298;6.430;2023-04-03T11:53:27;7.90;;;1.75;;
35969;SDS011;22448;51.298;6.430;2023-04-03T11:55:57;6.50;;;1.83;;
35969;SDS011;22448;51.298;6.430;2023-04-03T11:58:27;5.38;;;1.50;;
35969;SDS011;22448;51.298;6.430;2023-04-03T12:00:57;3.80;;;1.80;;
35969;SDS011;22448;51.298;6.430;2023-04-03T12:03:29;8.07;;;2.22;;
35969;SDS011;22448;51.298;6.430;2023-04-03T12:13:36;13.73;;;2.22;;
35969;SDS011;22448;51.298;6.430;2023-04-03T12:16:19;6.72;;;1.65;;
35969;SDS011;22448;51.298;6.430;2023-04-03T12:18:56;5.78;;;2.17;;
35969;SDS011;22448;51.298;6.430;2023-04-03T12:23:57;4.82;;;1.55;;
35969;SDS011;22448;51.298;6.430;2023-04-03T12:26:31;3.85;;;1.90;;
35969;SDS011;22448;51.298;6.430;2023-04-03T12:37:54;7.50;;;2.00;;
35969;SDS011;22448;51.298;6.430;2023-04-03T12:46:15;3.95;;;1.73;;
35969;SDS011;22448;51.298;6.430;2023-04-03T12:54:02;7.18;;;2.17;;
35969;SDS011;22448;51.298;6.430;2023-04-03T12:56:39;10.93;;;2.80;;
35969;SDS011;22448;51.298;6.430;2023-04-03T12:59:25;4.88;;;2.03;;
35969;SDS011;22448;51.298;6.430;2023-04-03T13:01:53;7.57;;;2.83;;
35969;SDS011;22448;51.298;6.430;2023-04-03T13:04:22;9.45;;;2.33;;
35969;SDS011;22448;51.298;6.430;2023-04-03T13:06:49;4.72;;;2.40;;
35969;SDS011;22448;51.298;6.430;2023-04-03T13:09:19;3.28;;;1.58;;
35969;SDS011;22448;51.298;6.430;2023-04-03T13:12:07;4.90;;;1.88;;
35969;SDS011;22448;51.298;6.430;2023-04-03T13:14:38;8.02;;;2.20;;
35969;SDS011;22448;51.298;6.430;2023-04-03T13:17:12;5.00;;;1.63;;
35969;SDS011;22448;51.298;6.430;2023-04-03T13:19:41;3.20;;;1.60;;
35969;SDS011;22448;51.298;6.430;2023-04-03T13:22:15;8.23;;;2.15;;
35969;SDS011;22448;51.298;6.430;2023-04-03T13:24:59;8.10;;;2.50;;
35969;SDS011;22448;51.298;6.430;2023-04-03T13:27:31;3.78;;;1.60;;
35969;SDS011;22448;51.298;6.430;2023-04-03T13:29:59;4.32;;;1.88;;
35969;SDS011;22448;51.298;6.430;2023-04-03T13:32:28;8.35;;;2.17;;
35969;SDS011;22448;51.298;6.430;2023-04-03T13:34:57;5.80;;;1.90;;
35969;SDS011;22448;51.298;6.430;2023-04-03T13:37:52;5.45;;;1.90;;
35969;SDS011;22448;51.298;6.430;2023-04-03T13:40:25;7.10;;;1.77;;
35969;SDS011;22448;51.298;6.430;2023-04-03T13:42:59;5.88;;;2.15;;
35969;SDS011;22448;51.298;6.430;2023-04-03T13:45:32;7.90;;;2.03;;
35969;SDS011;22448;51.298;6.430;2023-04-03T13:48:15;5.25;;;2.50;;
35969;SDS011;22448;51.298;6.430;2023-04-03T13:50:54;8.93;;;2.70;;
35969;SDS011;22448;51.298;6.430;2023-04-03T13:53:27;5.00;;;2.05;;
35969;SDS011;22448;51.298;6.430;2023-04-03T13:58:29;8.77;;;2.10;;
35969;SDS011;22448;51.298;6.430;2023-04-03T14:01:06;8.73;;;1.73;;
35969;SDS011;22448;51.298;6.430;2023-04-03T14:03:45;9.15;;;2.05;;
35969;SDS011;22448;51.298;6.430;2023-04-03T14:06:17;8.80;;;2.50;;
35969;SDS011;22448;51.298;6.430;2023-04-03T14:08:45;9.63;;;2.25;;
35969;SDS011;22448;51.298;6.430;2023-04-03T14:13:44;9.93;;;2.60;;
35969;SDS011;22448;51.298;6.430;2023-04-03T14:16:14;9.15;;;2.72;;
35969;SDS011;22448;51.298;6.430;2023-04-03T14:18:46;9.30;;;2.45;;
35969;SDS011;22448;51.298;6.430;2023-04-03T14:21:16;5.55;;;2.20;;
35969;SDS011;22448;51.298;6.430;2023-04-03T14:23:44;7.07;;;2.45;;
35969;SDS011;22448;51.298;6.430;2023-04-03T14:26:22;5.68;;;1.90;;
35969;SDS011;22448;51.298;6.430;2023-04-03T14:28:51;8.07;;;2.25;;
35969;SDS011;22448;51.298;6.430;2023-04-03T14:31:20;4.78;;;2.22;;
35969;SDS011;22448;51.298;6.430;2023-04-03T14:33:48;10.80;;;2.20;;
35969;SDS011;22448;51.298;6.430;2023-04-03T14:36:17;7.47;;;1.90;;
35969;SDS011;22448;51.298;6.430;2023-04-03T14:38:47;3.92;;;1.90;;
35969;SDS011;22448;51.298;6.430;2023-04-03T14:41:17;6.25;;;2.10;;
35969;SDS011;22448;51.298;6.430;2023-04-03T14:43:47;3.45;;;1.70;;
35969;SDS011;22448;51.298;6.430;2023-04-03T14:49:15;5.55;;;1.92;;
35969;SDS011;22448;51.298;6.430;2023-04-03T14:51:47;6.63;;;1.90;;
35969;SDS011;22448;51.298;6.430;2023-04-03T14:54:16;3.42;;;1.70;;
35969;SDS011;22448;51.298;6.430;2023-04-03T14:56:45;10.18;;;1.83;;
35969;SDS011;22448;51.298;6.430;2023-04-03T14:59:13;6.18;;;2.05;;
35969;SDS011;22448;51.298;6.430;2023-04-03T15:01:41;5.97;;;2.10;;
35969;SDS011;22448;51.298;6.430;2023-04-03T15:04:12;6.20;;;1.58;;
35969;SDS011;22448;51.298;6.430;2023-04-03T15:06:41;5.25;;;1.98;;
35969;SDS011;22448;51.298;6.430;2023-04-03T15:09:15;8.18;;;2.20;;
35969;SDS011;22448;51.298;6.430;2023-04-03T15:11:52;6.70;;;1.98;;
35969;SDS011;22448;51.298;6.430;2023-04-03T15:14:20;7.97;;;1.92;;
35969;SDS011;22448;51.298;6.430;2023-04-03T15:17:04;4.68;;;2.13;;
35969;SDS011;22448;51.298;6.430;2023-04-03T15:19:33;4.15;;;2.45;;
35969;SDS011;22448;51.298;6.430;2023-04-03T15:22:03;5.53;;;1.77;;
35969;SDS011;22448;51.298;6.430;2023-04-03T15:24:30;5.65;;;2.08;;
35969;SDS011;22448;51.298;6.430;2023-04-03T15:26:57;5.72;;;1.90;;
35969;SDS011;22448;51.298;6.430;2023-04-03T15:29:26;6.03;;;2.05;;
35969;SDS011;22448;51.298;6.430;2023-04-03T15:31:53;5.32;;;2.15;;
35969;SDS011;22448;51.298;6.430;2023-04-03T15:34:21;5.05;;;1.90;;
35969;SDS011;22448;51.298;6.430;2023-04-03T15:36:49;10.50;;;2.15;;
35969;SDS011;22448;51.298;6.430;2023-04-03T15:39:18;7.35;;;1.75;;
35969;SDS011;22448;51.298;6.430;2023-04-03T15:41:46;8.90;;;1.80;;
35969;SDS011;22448;51.298;6.430;2023-04-03T15:44:13;5.78;;;2.30;;
35969;SDS011;22448;51.298;6.430;2023-04-03T15:46:44;9.27;;;1.85;;
35969;SDS011;22448;51.298;6.430;2023-04-03T15:49:12;6.30;;;2.03;;
35969;SDS011;22448;51.298;6.430;2023-04-03T15:51:39;5.07;;;1.70;;
35969;SDS011;22448;51.298;6.430;2023-04-03T15:54:06;5.75;;;1.75;;
35969;SDS011;22448;51.298;6.430;2023-04-03T15:56:33;7.63;;;2.00;;
35969;SDS011;22448;51.298;6.430;2023-04-03T15:59:00;12.02;;;3.17;;
35969;SDS011;22448;51.298;6.430;2023-04-03T16:01:27;7.45;;;2.15;;
35969;SDS011;22448;51.298;6.430;2023-04-03T16:03:54;6.65;;;1.90;;
35969;SDS011;22448;51.298;6.430;2023-04-03T16:06:22;7.80;;;1.90;;
35969;SDS011;22448;51.298;6.430;2023-04-03T16:08:51;8.48;;;2.20;;
35969;SDS011;22448;51.298;6.430;2023-04-03T16:11:20;4.68;;;1.75;;
35969;SDS011;22448;51.298;6.430;2023-04-03T16:13:47;6.63;;;1.65;;
35969;SDS011;22448;51.298;6.430;2023-04-03T16:16:14;5.13;;;2.20;;
35969;SDS011;22448;51.298;6.430;2023-04-03T16:18:41;6.90;;;2.33;;
35969;SDS011;22448;51.298;6.430;2023-04-03T16:21:08;6.55;;;1.50;;
35969;SDS011;22448;51.298;6.430;2023-04-03T16:23:35;9.43;;;2.17;;
35969;SDS011;22448;51.298;6.430;2023-04-03T16:26:02;5.75;;;1.65;;
35969;SDS011;22448;51.298;6.430;2023-04-03T16:28:29;4.10;;;1.73;;
35969;SDS011;22448;51.298;6.430;2023-04-03T16:30:56;9.13;;;2.33;;
35969;SDS011;22448;51.298;6.430;2023-04-03T16:33:24;8.15;;;2.40;;
35969;SDS011;22448;51.298;6.430;2023-04-03T16:35:51;9.65;;;2.47;;
35969;SDS011;22448;51.298;6.430;2023-04-03T16:38:18;13.23;;;2.63;;
35969;SDS011;22448;51.298;6.430;2023-04-03T16:40:46;9.45;;;2.35;;
35969;SDS011;22448;51.298;6.430;2023-04-03T16:43:12;10.38;;;2.55;;